Time;durP1;ratioP1;P1;durP2;ratioP2;P2;SDS_P1;SDS_P2;PMS_P1;PMS_P2;Temp;Humidity;BMP_temperature;BMP_pressure;BME280_temperature;BME280_humidity;BME280_pressure;Samples;Min_cycle;Max_cycle;Signal;HPM_P1;HPM_P2
2022/02/14 00:01:54;;;;;;;10.80;4.57;;;;;;;5.25;87.87;100219.69;4988537;28;20686;-74
2022/02/14 00:04:20;;;;;;;9.82;4.70;;;;;;;5.18;87.75;100210.72;4983239;28;20047;-74
2022/02/14 00:06:46;;;;;;;8.77;4.40;;;;;;;5.34;86.77;100218.94;4982361;28;20046;-74
2022/02/14 00:09:12;;;;;;;13.23;4.07;;;;;;;5.38;87.06;100216.91;4985982;28;20116;-75
2022/02/14 00:11:37;;;;;;;11.45;4.72;;;;;;;5.33;87.17;100212.09;4956267;28;20513;-74
2022/02/14 00:14:03;;;;;;;8.90;4.38;;;;;;;5.35;86.70;100212.78;4981757;28;20046;-74
2022/02/14 00:16:28;;;;;;;11.55;4.53;;;;;;;5.33;87.41;100195.63;4982404;28;20039;-75
2022/02/14 00:18:54;;;;;;;9.18;4.00;;;;;;;5.32;87.07;100197.44;4980452;28;20085;-73
2022/02/14 00:21:20;;;;;;;11.48;4.57;;;;;;;5.32;87.28;100207.81;4980280;28;20667;-74
2022/02/14 00:23:45;;;;;;;9.10;4.10;;;;;;;5.37;86.32;100197.03;4984430;28;20042;-74
2022/02/14 00:26:11;;;;;;;13.15;4.93;;;;;;;5.41;86.44;100198.47;4974857;28;20053;-74
2022/02/14 00:28:36;;;;;;;10.10;4.38;;;;;;;5.38;86.73;100190.91;4992466;28;20057;-74
2022/02/14 00:31:03;;;;;;;12.15;4.32;;;;;;;5.34;86.73;100179.91;4980984;28;20084;-74
2022/02/14 00:33:29;;;;;;;14.05;4.55;;;;;;;5.30;86.92;100185.50;4990005;28;20455;-74
2022/02/14 00:35:54;;;;;;;8.98;4.28;;;;;;;5.33;86.87;100172.22;4978732;28;20039;-74
2022/02/14 00:38:21;;;;;;;10.20;4.30;;;;;;;5.37;86.95;100178.81;4968149;28;20046;-73
2022/02/14 00:40:46;;;;;;;11.23;4.38;;;;;;;5.40;86.14;100176.81;4953510;28;20110;-74
2022/02/14 00:43:12;;;;;;;10.63;4.60;;;;;;;5.33;86.42;100170.47;4991121;28;20139;-74
2022/02/14 00:45:39;;;;;;;13.43;4.45;;;;;;;5.28;86.88;100167.44;4974308;28;20481;-74
2022/02/14 00:48:05;;;;;;;11.75;4.10;;;;;;;5.36;86.56;100165.00;4994894;28;20022;-75
2022/02/14 00:50:31;;;;;;;7.53;3.95;;;;;;;5.40;85.65;100161.19;4988879;28;20035;-76
2022/02/14 00:52:57;;;;;;;11.98;4.50;;;;;;;5.48;85.40;100160.56;4963181;28;20736;-74
2022/02/14 00:55:22;;;;;;;10.70;4.18;;;;;;;5.48;85.56;100160.56;4986289;28;20602;-74
2022/02/14 00:57:49;;;;;;;11.35;4.28;;;;;;;5.51;85.30;100154.28;4970296;28;20081;-73
2022/02/14 01:00:18;;;;;;;14.82;4.55;;;;;;;5.57;85.39;100154.59;4991583;28;20069;-74
2022/02/14 01:02:44;;;;;;;10.00;4.05;;;;;;;5.56;85.39;100152.97;4978567;28;20034;-74
2022/02/14 01:05:11;;;;;;;8.63;3.70;;;;;;;5.53;85.05;100141.97;4970636;28;20074;-75
2022/02/14 01:07:38;;;;;;;13.40;4.10;;;;;;;5.51;85.25;100149.91;4959072;28;20497;-76
2022/02/14 01:10:06;;;;;;;10.68;4.20;;;;;;;5.60;84.73;100132.72;4985315;28;20042;-74
2022/02/14 01:12:33;;;;;;;10.82;4.05;;;;;;;5.59;84.94;100138.84;4986224;28;20045;-74
2022/02/14 01:14:59;;;;;;;8.43;3.90;;;;;;;5.62;84.69;100128.19;4992161;28;20030;-74
2022/02/14 01:17:25;;;;;;;11.88;3.55;;;;;;;5.61;84.24;100123.94;4988902;28;20398;-74
2022/02/14 01:19:51;;;;;;;11.02;3.67;;;;;;;5.70;83.99;100122.34;4988120;28;20038;-74
2022/02/14 01:22:16;;;;;;;8.25;3.53;;;;;;;5.70;83.99;100123.16;4989514;28;20057;-74
2022/02/14 01:24:43;;;;;;;15.23;3.95;;;;;;;5.72;84.50;100107.44;4973329;28;20049;-75
2022/02/14 01:27:08;;;;;;;8.88;3.78;;;;;;;5.75;83.85;100114.97;4987611;28;20076;-75
2022/02/14 01:29:34;;;;;;;9.30;4.05;;;;;;;5.78;84.08;100119.91;4964372;28;20058;-74
2022/02/14 01:32:01;;;;;;;8.57;3.80;;;;;;;5.82;83.47;100105.66;4975515;28;20118;-74
2022/02/14 01:34:27;;;;;;;8.00;3.50;;;;;;;5.82;83.53;100101.31;4972989;28;20058;-74
2022/02/14 01:36:53;;;;;;;9.90;3.80;;;;;;;5.83;83.10;100102.94;4984025;28;20092;-74
2022/02/14 01:39:19;;;;;;;7.22;3.30;;;;;;;5.83;83.33;100099.53;4983425;28;20477;-73
2022/02/14 01:41:45;;;;;;;7.78;3.35;;;;;;;5.78;83.33;100101.69;4977191;28;20031;-74
2022/02/14 01:44:31;;;;;;;10.55;3.70;;;;;;;5.83;83.66;100105.53;4989269;28;20492;-75
2022/02/14 01:46:56;;;;;;;7.13;3.42;;;;;;;5.87;82.98;100095.69;4982368;28;20027;-74
2022/02/14 01:49:22;;;;;;;8.88;3.55;;;;;;;5.81;83.84;100091.84;4985030;28;20034;-75
2022/02/14 01:51:47;;;;;;;8.35;3.75;;;;;;;5.79;83.10;100091.16;4990527;28;20075;-74
2022/02/14 01:54:14;;;;;;;11.63;3.50;;;;;;;5.72;83.57;100087.41;4988776;28;20540;-75
2022/02/14 01:56:39;;;;;;;9.43;3.22;;;;;;;5.76;83.97;100081.00;4983779;28;20035;-75
2022/02/14 01:59:05;;;;;;;11.65;3.90;;;;;;;5.78;83.19;100086.06;4988225;28;20647;-74
2022/02/14 02:01:31;;;;;;;8.60;3.33;;;;;;;5.81;83.17;100075.41;4958899;28;20042;-74
2022/02/14 02:03:56;;;;;;;8.00;3.42;;;;;;;5.82;83.10;100072.69;4966149;28;20030;-75
2022/02/14 02:06:22;;;;;;;12.70;3.83;;;;;;;5.88;82.97;100063.53;4972380;28;20045;-73
2022/02/14 02:08:48;;;;;;;10.68;3.35;;;;;;;5.83;82.79;100061.31;4984158;28;20117;-74
2022/02/14 02:13:59;;;;;;;7.05;3.28;;;;;;;5.76;83.55;100061.97;4985008;28;20042;-74
2022/02/14 02:16:25;;;;;;;7.18;3.22;;;;;;;5.69;83.86;100059.09;4978651;28;20042;-74
2022/02/14 02:18:50;;;;;;;8.60;3.75;;;;;;;5.72;83.54;100055.38;4975529;28;20054;-74
2022/02/14 02:21:16;;;;;;;6.65;3.00;;;;;;;5.60;84.23;100042.47;4984149;28;20493;-74
2022/02/14 02:23:42;;;;;;;5.70;3.05;;;;;;;5.54;85.17;100049.97;4989765;28;20062;-74
2022/02/14 02:26:08;;;;;;;8.98;3.50;;;;;;;5.42;85.63;100039.66;4989696;28;20821;-74
2022/02/14 02:28:33;;;;;;;6.10;3.10;;;;;;;5.39;85.39;100033.91;4987515;28;20034;-74
2022/02/14 02:31:03;;;;;;;10.40;3.50;;;;;;;5.32;86.07;100025.78;4994749;28;20042;-74
2022/02/14 02:33:30;;;;;;;6.55;3.22;;;;;;;5.23;86.54;100023.97;4971898;28;20041;-75
2022/02/14 02:35:56;;;;;;;8.15;3.22;;;;;;;5.20;87.20;100019.84;4983749;28;20085;-74
2022/02/14 02:38:23;;;;;;;10.45;3.38;;;;;;;5.23;86.91;100013.56;4971327;28;20030;-74
2022/02/14 02:40:50;;;;;;;13.15;3.10;;;;;;;5.28;86.55;100010.59;4981133;28;20034;-74
2022/02/14 02:43:19;;;;;;;10.82;3.70;;;;;;;5.24;87.36;100004.81;4970363;28;20120;-74
2022/02/14 02:45:45;;;;;;;10.73;3.40;;;;;;;5.09;87.62;100004.34;4989797;28;20034;-74
2022/02/14 02:48:11;;;;;;;10.32;3.17;;;;;;;5.01;88.67;99999.78;4966592;28;20120;-74
2022/02/14 02:51:01;;;;;;;9.93;3.60;;;;;;;5.21;87.35;99998.09;4988700;28;20110;-74
2022/02/14 02:53:26;;;;;;;9.45;3.38;;;;;;;5.18;87.74;99992.31;4988520;28;20039;-74
2022/02/14 02:55:51;;;;;;;8.43;3.50;;;;;;;5.11;87.72;99988.63;5004361;28;20069;-75
2022/02/14 02:58:17;;;;;;;10.50;3.63;;;;;;;5.07;88.58;99988.88;4985981;28;20036;-74
2022/02/14 03:00:42;;;;;;;7.70;3.22;;;;;;;5.06;88.13;99987.22;4984817;28;20039;-74
2022/02/14 03:03:08;;;;;;;10.73;3.20;;;;;;;5.03;88.20;99984.88;4971286;28;20141;-74
2022/02/14 03:05:34;;;;;;;9.68;3.10;;;;;;;4.98;88.30;99976.63;4988644;28;20049;-74
2022/02/14 03:08:00;;;;;;;8.20;3.10;;;;;;;4.88;89.51;99968.81;4972636;28;20026;-75
2022/02/14 03:10:25;;;;;;;10.88;3.40;;;;;;;4.91;89.52;99967.72;4977313;28;20467;-74
2022/02/14 03:12:51;;;;;;;8.55;3.63;;;;;;;4.88;89.68;99957.59;4985742;28;20031;-74
2022/02/14 03:15:17;;;;;;;10.68;3.47;;;;;;;4.92;89.87;99958.97;4984187;28;20034;-74
2022/02/14 03:17:42;;;;;;;7.57;3.10;;;;;;;4.96;89.56;99965.56;4972803;28;20397;-74
2022/02/14 03:20:09;;;;;;;6.13;2.60;;;;;;;4.95;89.58;99957.88;4983733;28;20046;-73
2022/02/14 03:22:34;;;;;;;10.88;3.15;;;;;;;5.08;88.75;99961.09;4956778;28;20031;-75
2022/02/14 03:25:00;;;;;;;8.80;3.22;;;;;;;5.16;88.56;99942.22;4972723;28;20046;-73
2022/02/14 03:27:26;;;;;;;8.82;3.10;;;;;;;5.17;88.74;99951.69;4993153;28;20034;-74
2022/02/14 03:29:51;;;;;;;11.52;3.75;;;;;;;5.26;88.39;99937.91;4992485;28;20041;-74
2022/02/14 03:32:17;;;;;;;7.88;2.90;;;;;;;5.33;87.48;99940.78;4983303;28;20038;-74
2022/02/14 03:34:43;;;;;;;6.20;2.78;;;;;;;5.33;88.29;99935.59;4999443;28;20026;-75
2022/02/14 03:37:08;;;;;;;7.82;3.05;;;;;;;5.35;87.45;99941.47;4971076;28;20388;-75
2022/02/14 03:39:34;;;;;;;10.57;3.25;;;;;;;5.45;87.20;99937.16;4969394;28;20026;-74
2022/02/14 03:41:59;;;;;;;6.00;2.85;;;;;;;5.46;87.46;99938.78;4982408;28;20116;-74
2022/02/14 03:44:25;;;;;;;9.80;2.95;;;;;;;5.40;87.45;99937.53;4971458;28;20029;-75
2022/02/14 03:46:50;;;;;;;9.77;3.15;;;;;;;5.37;87.30;99932.59;4980268;28;20049;-74
2022/02/14 03:49:16;;;;;;;10.25;3.30;;;;;;;5.38;87.60;99925.63;4965596;28;20071;-75
2022/02/14 03:51:43;;;;;;;9.13;3.33;;;;;;;5.45;87.59;99929.34;4979714;28;20070;-75
2022/02/14 03:54:09;;;;;;;4.55;2.78;;;;;;;5.45;87.67;99929.34;4987148;28;20037;-74
2022/02/14 03:56:35;;;;;;;11.00;3.10;;;;;;;5.48;87.74;99923.84;4982047;28;20038;-74
2022/02/14 03:59:01;;;;;;;7.93;3.10;;;;;;;5.49;87.18;99927.28;4988455;28;20042;-74
2022/02/14 04:01:26;;;;;;;11.80;3.28;;;;;;;5.47;86.99;99927.41;4988810;28;20042;-74
2022/02/14 04:03:52;;;;;;;9.23;3.03;;;;;;;5.61;86.64;99918.41;4971992;28;20034;-74
2022/02/14 04:06:18;;;;;;;9.55;3.25;;;;;;;5.62;86.63;99920.06;4970510;28;20128;-74
2022/02/14 04:08:43;;;;;;;9.40;3.17;;;;;;;5.60;87.34;99921.97;4953277;28;20062;-74
2022/02/14 04:11:09;;;;;;;6.15;2.92;;;;;;;5.55;87.20;99926.75;4980438;28;20732;-74
2022/02/14 04:13:34;;;;;;;12.23;3.20;;;;;;;5.61;87.34;99918.41;4985843;28;20055;-74
2022/02/14 04:16:00;;;;;;;7.60;3.20;;;;;;;5.62;87.13;99909.66;4976975;28;20620;-74
2022/02/14 04:18:26;;;;;;;8.38;2.88;;;;;;;5.46;88.13;99898.00;4987967;28;20045;-74
2022/02/14 04:20:51;;;;;;;10.38;3.17;;;;;;;5.47;87.78;99896.22;4971107;28;20690;-74
2022/02/14 04:23:17;;;;;;;8.27;3.00;;;;;;;5.55;87.12;99905.94;4983486;28;20038;-74
2022/02/14 04:25:42;;;;;;;7.80;3.17;;;;;;;5.56;87.30;99899.81;4983691;28;20037;-75
2022/02/14 04:28:08;;;;;;;10.18;3.65;;;;;;;5.48;87.90;99897.84;4971777;28;20507;-74
2022/02/14 04:30:34;;;;;;;10.93;3.10;;;;;;;5.45;88.21;99896.34;4992201;28;20117;-74
2022/02/14 04:33:01;;;;;;;12.13;3.00;;;;;;;5.50;88.10;99895.09;4989043;28;20480;-74
2022/02/14 04:35:29;;;;;;;6.55;3.03;;;;;;;5.38;88.27;99889.22;4978852;28;20105;-74
2022/02/14 04:37:59;;;;;;;8.90;3.17;;;;;;;5.41;88.53;99887.16;4968271;28;20050;-74
2022/02/14 04:40:27;;;;;;;6.53;3.42;;;;;;;5.41;88.15;99887.16;4975406;28;20113;-74
2022/02/14 04:42:53;;;;;;;12.60;3.05;;;;;;;5.42;88.00;99891.41;4976038;28;20481;-75
2022/02/14 04:45:18;;;;;;;7.32;2.97;;;;;;;5.39;88.55;99885.66;4982322;28;20034;-74
2022/02/14 04:47:44;;;;;;;9.48;2.90;;;;;;;5.46;88.63;99885.00;4983734;28;20058;-76
2022/02/14 04:50:10;;;;;;;9.57;3.03;;;;;;;5.51;88.95;99884.56;4980279;28;20037;-74
2022/02/14 04:52:35;;;;;;;7.60;2.95;;;;;;;5.55;87.95;99874.72;4990991;28;20035;-74
2022/02/14 04:55:01;;;;;;;7.35;2.97;;;;;;;5.57;87.65;99867.59;4986495;28;20034;-74
2022/02/14 04:57:27;;;;;;;10.05;2.70;;;;;;;5.71;87.05;99880.22;4984804;28;20053;-75
2022/02/14 04:59:52;;;;;;;10.50;3.00;;;;;;;5.76;87.23;99874.59;4973556;28;20039;-75
2022/02/14 05:02:18;;;;;;;5.32;2.83;;;;;;;5.72;86.94;99874.06;4987833;28;20038;-75
2022/02/14 05:04:43;;;;;;;9.30;3.33;;;;;;;5.67;87.58;99868.44;4970178;28;20132;-75
2022/02/14 05:07:09;;;;;;;16.63;3.33;;;;;;;5.81;86.38;99872.41;4985492;28;20485;-73
2022/02/14 05:09:34;;;;;;;7.40;3.00;;;;;;;5.90;86.06;99876.00;4989197;28;20034;-74
2022/02/14 05:12:00;;;;;;;9.32;2.97;;;;;;;5.83;86.87;99873.91;4991503;28;20038;-75
2022/02/14 05:14:26;;;;;;;8.73;3.30;;;;;;;5.76;87.34;99872.00;4976720;28;20026;-75
2022/02/14 05:16:51;;;;;;;9.20;3.50;;;;;;;5.74;86.79;99866.13;4974996;28;20046;-75
2022/02/14 05:19:17;;;;;;;7.53;3.15;;;;;;;5.64;87.93;99868.72;4967940;28;20080;-75
2022/02/14 05:21:43;;;;;;;6.03;3.08;;;;;;;5.53;88.40;99861.84;4969252;28;20592;-75
2022/02/14 05:24:08;;;;;;;11.23;3.10;;;;;;;5.44;88.92;99862.66;4973978;28;20033;-75
2022/02/14 05:26:34;;;;;;;9.63;3.22;;;;;;;5.39;89.13;99860.47;4983398;28;20035;-75
2022/02/14 05:29:00;;;;;;;6.43;3.13;;;;;;;5.31;89.23;99852.50;5007285;28;20054;-74
2022/02/14 05:31:29;;;;;;;12.25;3.10;;;;;;;5.35;89.71;99853.06;4963092;28;20074;-75
2022/02/14 05:33:55;;;;;;;7.28;2.80;;;;;;;5.41;88.91;99853.34;4990217;28;20101;-75
2022/02/14 05:36:22;;;;;;;6.95;2.80;;;;;;;5.45;88.25;99851.31;4982461;28;20129;-76
2022/02/14 05:38:47;;;;;;;10.48;2.97;;;;;;;5.48;88.71;99848.41;4974474;28;20464;-77
2022/02/14 05:41:14;;;;;;;6.03;3.10;;;;;;;5.53;87.91;99850.63;4983260;28;20040;-75
2022/02/14 05:43:40;;;;;;;7.28;2.60;;;;;;;5.55;88.40;99848.72;4986991;28;20023;-75
2022/02/14 05:46:13;;;;;;;9.40;3.00;;;;;;;5.51;88.82;99844.75;4993699;28;20035;-76
2022/02/14 05:48:43;;;;;;;8.23;2.97;;;;;;;5.57;87.65;99844.19;4963348;28;20528;-76
2022/02/14 05:51:10;;;;;;;9.70;3.05;;;;;;;5.60;87.55;99834.34;4953066;28;20080;-75
2022/02/14 05:53:37;;;;;;;5.78;2.80;;;;;;;5.69;87.45;99834.47;4987936;28;20035;-75
2022/02/14 05:56:03;;;;;;;4.25;3.05;;;;;;;5.72;87.19;99834.22;4961611;28;20105;-76
2022/02/14 05:58:29;;;;;;;12.60;3.28;;;;;;;5.82;86.77;99832.41;4975491;28;20039;-75
2022/02/14 06:00:54;;;;;;;7.70;2.90;;;;;;;5.78;87.30;99823.22;4993676;28;20096;-75
2022/02/14 06:03:20;;;;;;;8.52;2.80;;;;;;;5.87;85.86;99837.22;4982442;28;20121;-75
2022/02/14 06:05:46;;;;;;;9.73;3.15;;;;;;;5.90;86.40;99842.97;4983382;28;20046;-75
2022/02/14 06:08:11;;;;;;;4.95;3.05;;;;;;;5.86;86.80;99833.78;4990045;28;20639;-75
2022/02/14 06:10:37;;;;;;;10.35;3.25;;;;;;;5.88;86.42;99839.69;4975133;28;20037;-75
2022/02/14 06:13:03;;;;;;;8.23;2.53;;;;;;;5.85;87.09;99845.16;4990115;28;20366;-74
2022/02/14 06:15:29;;;;;;;6.85;3.00;;;;;;;5.78;86.54;99842.28;4978648;28;20038;-75
2022/02/14 06:17:54;;;;;;;6.30;2.65;;;;;;;5.79;86.60;99835.31;4972963;28;20064;-74
2022/02/14 06:20:20;;;;;;;14.07;3.35;;;;;;;5.73;87.21;99839.28;4979359;28;20054;-75
2022/02/14 06:22:46;;;;;;;10.20;2.80;;;;;;;5.82;86.71;99842.81;4994532;28;20362;-75
2022/02/14 06:25:11;;;;;;;8.88;2.72;;;;;;;5.95;86.32;99853.81;4975771;28;20038;-74
2022/02/14 06:27:37;;;;;;;10.88;3.10;;;;;;;5.90;86.70;99861.19;4990557;28;20031;-75
2022/02/14 06:30:04;;;;;;;10.10;2.90;;;;;;;5.85;86.66;99852.97;4992977;28;20034;-75
2022/02/14 06:32:30;;;;;;;11.82;3.28;;;;;;;5.91;86.50;99844.59;4979616;28;20068;-75
2022/02/14 06:34:57;;;;;;;6.20;2.65;;;;;;;5.98;86.16;99850.94;4986342;28;20070;-75
2022/02/14 06:37:23;;;;;;;9.70;2.80;;;;;;;6.01;85.49;99839.44;4982917;28;20988;-74
2022/02/14 06:39:48;;;;;;;10.10;2.97;;;;;;;6.03;85.05;99847.94;4951819;28;20483;-75
2022/02/14 06:42:14;;;;;;;6.95;2.80;;;;;;;6.08;84.58;99840.50;4987820;28;20129;-75
2022/02/14 06:44:40;;;;;;;7.40;2.75;;;;;;;6.08;84.43;99843.09;4989179;28;20121;-74
2022/02/14 06:47:06;;;;;;;9.60;3.10;;;;;;;6.10;83.97;99848.16;4961526;28;20723;-76
2022/02/14 06:49:31;;;;;;;10.27;2.90;;;;;;;6.09;84.72;99849.97;4979073;28;20059;-74
2022/02/14 06:51:57;;;;;;;4.85;2.45;;;;;;;6.11;84.61;99847.22;4991075;28;20042;-75
2022/02/14 06:54:23;;;;;;;8.07;3.10;;;;;;;6.11;84.55;99850.63;4969202;28;20054;-74
2022/02/14 06:56:49;;;;;;;6.80;2.60;;;;;;;6.08;84.59;99853.50;4996677;28;20030;-75
2022/02/14 06:59:19;;;;;;;8.23;3.13;;;;;;;6.00;84.80;99850.78;4991752;28;20037;-75
2022/02/14 07:01:45;;;;;;;6.85;3.08;;;;;;;6.08;84.92;99855.31;4973096;28;20042;-75
2022/02/14 07:04:11;;;;;;;7.20;2.67;;;;;;;5.99;84.95;99855.19;4951952;28;20037;-75
2022/02/14 07:06:36;;;;;;;9.25;3.05;;;;;;;5.99;85.00;99843.94;4988021;28;20039;-74
2022/02/14 07:09:03;;;;;;;6.35;2.38;;;;;;;6.02;85.42;99846.28;4972652;28;20080;-74
2022/02/14 07:11:28;;;;;;;7.55;2.95;;;;;;;6.08;84.45;99844.88;4990358;28;20138;-75
2022/02/14 07:13:54;;;;;;;9.75;2.53;;;;;;;6.07;84.66;99845.88;4987884;28;20065;-75
2022/02/14 07:16:19;;;;;;;7.35;3.00;;;;;;;6.03;84.87;99838.31;4968840;28;20076;-74
2022/02/14 07:18:45;;;;;;;7.53;2.90;;;;;;;6.04;85.23;99831.31;4971904;28;20113;-75
2022/02/14 07:21:10;;;;;;;7.55;3.00;;;;;;;6.06;84.99;99828.59;4978715;28;20038;-75
2022/02/14 07:23:36;;;;;;;15.38;3.10;;;;;;;6.08;84.85;99832.69;4984922;28;20547;-75
2022/02/14 07:26:02;;;;;;;9.55;2.80;;;;;;;6.09;85.30;99823.13;4970362;28;20041;-75
2022/02/14 07:28:28;;;;;;;8.75;2.72;;;;;;;6.07;85.19;99820.66;4968723;28;20027;-75
2022/02/14 07:30:53;;;;;;;11.38;3.00;;;;;;;6.15;85.19;99819.94;4973645;28;20077;-76
2022/02/14 07:33:20;;;;;;;7.72;2.88;;;;;;;6.17;84.56;99829.25;4983080;28;20030;-75
2022/02/14 07:35:46;;;;;;;11.45;3.40;;;;;;;6.18;85.10;99817.88;4990324;28;20026;-75
2022/02/14 07:38:12;;;;;;;8.30;2.88;;;;;;;6.20;85.11;99820.34;4989643;28;20034;-75
2022/02/14 07:40:38;;;;;;;8.60;2.63;;;;;;;6.26;85.37;99826.78;4983176;28;20022;-76
2022/02/14 07:43:04;;;;;;;10.27;2.92;;;;;;;6.32;85.20;99828.81;4988732;28;20030;-75
2022/02/14 07:45:30;;;;;;;6.35;2.88;;;;;;;6.43;84.77;99813.00;4961588;28;20429;-74
2022/02/14 07:47:56;;;;;;;9.23;2.53;;;;;;;6.57;83.98;99822.97;4985043;28;20046;-75
2022/02/14 07:50:23;;;;;;;7.53;2.60;;;;;;;6.63;83.66;99825.00;4972742;28;20042;-75
2022/02/14 07:52:51;;;;;;;4.45;2.38;;;;;;;6.75;83.74;99830.03;4989322;28;20038;-75
2022/02/14 07:55:16;;;;;;;8.00;2.40;;;;;;;6.71;84.03;99833.91;4959258;28;20210;-74
2022/02/14 07:57:42;;;;;;;7.78;2.63;;;;;;;6.83;83.78;99836.16;4982357;28;20129;-75
2022/02/14 08:00:08;;;;;;;10.73;2.35;;;;;;;6.85;83.72;99830.78;4968504;28;20037;-74
2022/02/14 08:02:40;;;;;;;15.35;2.83;;;;;;;6.88;84.02;99833.13;4971991;28;20508;-75
2022/02/14 08:05:06;;;;;;;5.72;2.33;;;;;;;6.99;83.26;99843.38;4982829;28;20066;-74
2022/02/14 08:07:33;;;;;;;5.43;2.53;;;;;;;6.96;82.90;99843.63;4985892;28;20501;-75
2022/02/14 08:09:59;;;;;;;9.85;2.67;;;;;;;7.04;82.73;99827.25;4972292;28;20058;-74
2022/02/14 08:12:25;;;;;;;9.73;2.35;;;;;;;7.10;82.29;99824.09;4969316;28;20073;-74
2022/02/14 08:14:52;;;;;;;5.55;2.38;;;;;;;7.13;82.19;99822.97;4981137;28;20057;-75
2022/02/14 08:17:18;;;;;;;8.27;2.53;;;;;;;7.25;81.98;99816.56;4982072;28;20113;-75
2022/02/14 08:19:43;;;;;;;4.60;2.10;;;;;;;7.36;80.81;99818.97;4985349;28;20493;-75
2022/02/14 08:22:09;;;;;;;7.90;2.60;;;;;;;7.40;80.28;99824.69;4970027;28;20046;-74
2022/02/14 08:24:35;;;;;;;7.28;2.17;;;;;;;7.45;81.16;99826.88;4952725;28;20511;-75
2022/02/14 08:27:03;;;;;;;5.82;1.85;;;;;;;7.52;80.71;99823.53;4990043;28;20541;-75
2022/02/14 08:29:29;;;;;;;5.97;2.65;;;;;;;7.65;80.67;99828.38;4989269;28;20130;-75
2022/02/14 08:31:55;;;;;;;5.22;2.33;;;;;;;7.68;80.73;99816.81;4966039;28;20041;-74
2022/02/14 08:34:20;;;;;;;11.75;2.72;;;;;;;7.71;80.87;99813.91;4981850;28;20747;-74
2022/02/14 08:36:46;;;;;;;7.32;2.17;;;;;;;7.75;80.89;99810.03;4962163;28;20027;-75
2022/02/14 08:39:13;;;;;;;6.38;2.20;;;;;;;7.78;81.03;99807.94;4979496;28;20030;-75
2022/02/14 08:41:38;;;;;;;5.65;2.40;;;;;;;7.79;79.98;99808.75;4966795;28;20038;-75
2022/02/14 08:44:05;;;;;;;3.92;2.22;;;;;;;7.80;80.07;99811.22;4959178;28;20050;-74
2022/02/14 08:46:31;;;;;;;5.45;2.00;;;;;;;7.73;80.79;99804.94;4967281;28;20034;-75
2022/02/14 08:48:56;;;;;;;5.40;2.03;;;;;;;7.85;80.44;99810.75;4990465;28;20138;-75
2022/02/14 08:51:23;;;;;;;7.82;2.40;;;;;;;7.93;79.82;99815.19;4993749;28;20042;-75
2022/02/14 08:53:50;;;;;;;7.00;2.45;;;;;;;8.04;78.95;99807.13;4960366;28;20030;-76
2022/02/14 08:56:16;;;;;;;10.23;2.38;;;;;;;8.09;79.74;99806.69;4989443;28;20057;-74
2022/02/14 08:58:42;;;;;;;5.07;2.55;;;;;;;8.17;79.73;99817.16;4995156;28;20417;-75
2022/02/14 09:01:11;;;;;;;7.47;2.22;;;;;;;8.20;79.70;99816.88;4993416;28;20421;-75
2022/02/14 09:03:39;;;;;;;5.22;2.10;;;;;;;8.28;79.16;99811.69;4979901;28;20038;-75
2022/02/14 09:06:06;;;;;;;5.22;2.20;;;;;;;8.35;78.93;99807.50;4966369;28;20072;-75
2022/02/14 09:08:32;;;;;;;6.65;2.30;;;;;;;8.49;78.38;99802.69;4985117;28;20078;-75
2022/02/14 09:11:00;;;;;;;6.20;2.20;;;;;;;8.54;78.17;99801.25;4990570;28;20042;-75
2022/02/14 09:13:31;;;;;;;7.07;2.40;;;;;;;8.61;78.52;99809.28;4980535;28;20038;-75
2022/02/14 09:15:57;;;;;;;7.22;2.10;;;;;;;8.66;77.58;99803.59;4989211;28;20444;-75
2022/02/14 09:18:22;;;;;;;7.32;2.00;;;;;;;8.64;78.78;99792.47;4977934;28;20038;-74
2022/02/14 09:20:48;;;;;;;4.75;2.28;;;;;;;8.61;79.44;99785.75;4981838;28;20035;-75
2022/02/14 09:23:14;;;;;;;7.28;2.40;;;;;;;8.67;77.72;99792.97;4984976;28;20030;-75
2022/02/14 09:25:40;;;;;;;6.05;2.30;;;;;;;8.80;77.91;99774.22;4990347;28;20088;-75
2022/02/14 09:28:07;;;;;;;7.75;2.22;;;;;;;9.01;77.08;99779.03;4993426;28;20378;-75
2022/02/14 09:30:33;;;;;;;5.70;2.30;;;;;;;9.12;77.83;99781.34;5002423;28;20124;-75
2022/02/14 09:32:59;;;;;;;4.82;2.00;;;;;;;9.30;76.48;99778.56;4985334;28;20031;-75
2022/02/14 09:35:27;;;;;;;3.30;1.90;;;;;;;9.31;77.09;99771.56;4963263;28;20034;-75
2022/02/14 09:37:58;;;;;;;5.25;2.03;;;;;;;9.47;76.29;99789.06;4986845;28;20030;-75
2022/02/14 09:40:26;;;;;;;7.25;2.20;;;;;;;9.65;75.87;99776.66;4987998;28;20045;-75
2022/02/14 09:42:54;;;;;;;5.43;2.22;;;;;;;9.79;75.92;99777.78;4955858;28;20138;-76
2022/02/14 09:45:24;;;;;;;9.38;1.90;;;;;;;9.88;75.95;99782.03;4988958;28;20042;-75
2022/02/14 09:48:04;;;;;;;8.93;2.00;;;;;;;9.98;76.01;99775.78;4992062;28;20053;-75
2022/02/14 09:50:33;;;;;;;7.60;1.92;;;;;;;10.07;75.42;99770.38;4988392;28;20030;-75
2022/02/14 09:53:00;;;;;;;7.28;2.00;;;;;;;10.18;75.75;99765.78;4983852;28;20747;-76
2022/02/14 09:55:26;;;;;;;5.47;1.83;;;;;;;10.17;75.30;99772.00;4966719;28;20035;-75
2022/02/14 09:57:52;;;;;;;6.43;1.90;;;;;;;10.20;74.46;99755.94;4987637;28;20038;-75
2022/02/14 10:00:18;;;;;;;6.88;1.70;;;;;;;10.29;75.47;99768.84;4977555;28;20416;-74
2022/02/14 10:02:44;;;;;;;6.97;1.55;;;;;;;10.42;75.50;99775.41;4974832;28;20045;-75
2022/02/14 10:05:21;;;;;;;4.28;2.08;;;;;;;10.45;74.67;99760.16;4990442;28;20034;-75
2022/02/14 10:07:52;;;;;;;3.65;1.85;;;;;;;10.46;74.47;99767.03;4981339;28;20041;-75
2022/02/14 10:10:24;;;;;;;7.03;2.03;;;;;;;10.55;75.27;99775.69;4962366;28;20058;-75
2022/02/14 10:12:55;;;;;;;2.92;1.60;;;;;;;10.59;74.04;99768.31;4983604;28;20130;-75
2022/02/14 10:15:22;;;;;;;5.65;1.73;;;;;;;10.58;73.67;99771.91;4984637;28;20038;-75
2022/02/14 10:17:51;;;;;;;6.20;2.03;;;;;;;10.57;73.79;99776.34;4986589;28;20041;-75
2022/02/14 10:20:24;;;;;;;4.63;1.98;;;;;;;10.60;73.79;99764.69;4987994;28;20113;-76
2022/02/14 10:22:56;;;;;;;3.15;1.55;;;;;;;10.56;75.08;99779.94;4991029;28;20034;-74
2022/02/14 10:25:34;;;;;;;3.50;1.67;;;;;;;10.62;73.70;99781.88;4972837;28;20045;-75
2022/02/14 10:28:20;;;;;;;6.13;1.92;;;;;;;10.68;75.42;99772.50;4993156;28;20040;-75
2022/02/14 10:31:00;;;;;;;3.97;1.58;;;;;;;10.73;73.49;99788.53;4981209;28;20485;-75
2022/02/14 10:33:47;;;;;;;4.78;1.90;;;;;;;10.77;74.96;99779.34;4989312;28;20480;-75
2022/02/14 10:36:22;;;;;;;6.88;1.95;;;;;;;10.82;74.28;99792.78;4985013;28;20038;-75
2022/02/14 10:38:47;;;;;;;2.30;1.70;;;;;;;10.84;73.83;99792.59;4989087;28;20054;-76
2022/02/14 10:41:13;;;;;;;5.28;1.52;;;;;;;10.89;74.62;99798.97;4987025;28;20471;-75
2022/02/14 10:43:41;;;;;;;5.43;2.00;;;;;;;10.91;73.85;99796.19;4957078;28;20062;-75
2022/02/14 10:46:07;;;;;;;3.75;1.52;;;;;;;10.89;73.82;99795.53;4973775;28;20102;-76
2022/02/14 10:48:40;;;;;;;2.75;1.70;;;;;;;10.90;74.30;99795.34;4959727;28;20107;-75
2022/02/14 10:51:06;;;;;;;6.93;1.80;;;;;;;11.00;74.16;99784.66;4975677;28;20034;-75
2022/02/14 10:53:44;;;;;;;4.20;1.80;;;;;;;11.02;74.35;99806.28;4990788;28;20069;-75
2022/02/14 10:56:10;;;;;;;5.88;1.70;;;;;;;10.99;73.86;99796.13;4980089;28;20038;-74
2022/02/14 10:58:36;;;;;;;8.07;1.75;;;;;;;11.03;74.08;99794.78;4986804;28;20026;-75
2022/02/14 11:01:01;;;;;;;5.80;1.90;;;;;;;11.06;74.05;99791.84;4965984;28;20116;-75
2022/02/14 11:03:27;;;;;;;4.80;1.80;;;;;;;11.18;74.09;99807.19;4985152;28;20054;-74
2022/02/14 11:05:53;;;;;;;6.95;2.17;;;;;;;11.21;74.25;99794.53;4970894;28;20069;-75
2022/02/14 11:08:22;;;;;;;6.18;1.92;;;;;;;11.25;74.16;99805.50;4993388;28;20034;-75
2022/02/14 11:10:50;;;;;;;2.42;1.60;;;;;;;11.33;73.90;99802.00;4992056;28;20038;-75
2022/02/14 11:13:17;;;;;;;5.53;2.13;;;;;;;11.37;74.31;99804.09;4980862;28;20109;-75
2022/02/14 11:15:46;;;;;;;7.05;2.35;;;;;;;11.37;73.23;99798.84;4958501;28;20034;-75
2022/02/14 11:18:14;;;;;;;5.45;2.20;;;;;;;11.49;74.50;99809.78;4982538;28;20041;-75
2022/02/14 11:20:41;;;;;;;5.35;1.88;;;;;;;11.52;73.65;99801.53;4971473;28;20042;-75
2022/02/14 11:23:09;;;;;;;3.47;1.40;;;;;;;11.70;74.72;99798.63;4989826;28;20042;-75
2022/02/14 11:25:47;;;;;;;4.07;1.70;;;;;;;11.70;73.62;99798.63;4981698;28;20073;-75
2022/02/14 11:28:48;;;;;;;5.40;1.85;;;;;;;11.81;73.18;99805.25;4974537;28;20069;-75
2022/02/14 11:31:19;;;;;;;9.05;1.90;;;;;;;11.74;73.26;99806.97;4975673;28;20576;-75
2022/02/14 11:33:56;;;;;;;8.25;2.30;;;;;;;11.52;74.54;99793.66;4983258;28;20042;-75
2022/02/14 11:36:25;;;;;;;7.65;1.60;;;;;;;11.37;74.74;99798.03;4983365;28;20045;-75
2022/02/14 11:38:59;;;;;;;6.15;1.90;;;;;;;11.39;75.82;99801.31;4987127;28;20546;-75